Bristol, VA (24203)

3:46 AM EDT on July 07, 2015 (GMT -0400)
Mount Area | | Change Station
CLOSE
Current Station
Personal Weather Station
Location: Bristol, TN
Elevation: 1614 ft
Nearby Weather Stations

Elev 1614 ft 36.57 °N, 82.25 °W | Updated 12 seconds ago

Fog
Fog
63.1 °F
Feels Like 63.1 °F
N
0.0
Wind Variable Wind from South
Gusts 0.0 mph

Today
High -- | Low -- °F
--% Chance of Precip.
Yesterday
High -- | Low -- °F
Precip. -- in
6:16 AM 8:50 PM
Waning Gibbous, 67% visible
Pressure 30.17 in
Visibility 1.0 miles
Clouds Overcast 400 ft
Dew Point 62 °F
Humidity 97%
Rainfall 0.00 in
Snow Depth Not available.
UV 0.0 out of 12
Pollen .50 out of 12
Air Quality Not available.
Flu Activity Not available.
METAR KVJI 070735Z AUTO 00000KT 1SM BR OVC004 18/18 A3017 RMK AO2 T01820182

More Conditions Fewer Conditions

Pressure 30.17 in
Visibility 1.0 miles
Clouds Overcast 400 ft
Dew Point 62 °F
Humidity 97%
Rainfall 0.00 in
Snow Depth Not available.
UV 0.0 out of 12
Pollen .50 out of 12
Air Quality Not available.
Flu Activity Not available.
METAR KVJI 070735Z AUTO 00000KT 1SM BR OVC004 18/18 A3017 RMK AO2 T01820182

More Conditions Fewer Conditions

10-Day Weather Forecast

×

Almanac

Astronomy

Jul. 07, 2015 Rise Set
Actual Time
Civil Twilight
Nautical Twilight
Astronomical Twilight
Moon
Length of Visible Light
Length of Day
Tomorrow will be .
, % of the Moon is Illuminated

Today's Extremes

State Highs State Lows

Community

WunderPhotos

Upload Photos

1,835,756 photos uploaded!

WunderBlogs® & News

Nearby

Air Quality

  Air Quality AQ Index Pollutant
Not available.

Snow Depth

Station Depth Elevation

Earthquake Activity

City Distance Mag. Time & Date
Minimum magnitude displayed is 2.5.

Coastal Water Temperatures

Place Temperature

Stations

Nearby Weather Stations

Station Location Temp. Windchill Dew Point Humidity Wind Precip. Elev Updated Type